Time;durP1;ratioP1;P1;durP2;ratioP2;P2;SDS_P1;SDS_P2;PMS_P1;PMS_P2;Temp;Humidity;BMP_temperature;BMP_pressure;BME280_temperature;BME280_humidity;BME280_pressure;Samples;Min_cycle;Max_cycle;Signal;HPM_P1;HPM_P2
2022/09/19 00:01:10;;;;;;;2.20;1.90;;;10.20;99.90;;;;;;5010622;28;20456;-48
2022/09/19 00:03:37;;;;;;;4.40;1.90;;;9.90;99.90;;;;;;5011428;28;20438;-47
2022/09/19 00:06:05;;;;;;;2.20;2.00;;;10.00;99.90;;;;;;5010984;28;20475;-47
2022/09/19 00:08:32;;;;;;;2.70;1.50;;;10.20;99.90;;;;;;5010688;28;20518;-48
2022/09/19 00:11:02;;;;;;;2.10;1.70;;;10.30;99.90;;;;;;5011379;28;20526;-48
2022/09/19 00:13:29;;;;;;;2.97;1.43;;;10.00;99.90;;;;;;5011611;28;20455;-47
2022/09/19 00:15:58;;;;;;;2.90;1.90;;;9.80;99.90;;;;;;5010944;28;20474;-48
2022/09/19 00:18:26;;;;;;;2.20;1.67;;;9.70;99.90;;;;;;5011537;28;20455;-48
2022/09/19 00:20:53;;;;;;;2.60;1.80;;;9.80;99.90;;;;;;5010377;28;20933;-47
2022/09/19 00:26:08;;;;;;;2.47;1.80;;;10.00;99.90;;;;;;5011198;28;20451;-48
2022/09/19 00:28:36;;;;;;;2.70;2.23;;;10.00;99.90;;;;;;5011039;28;20976;-48
2022/09/19 00:31:05;;;;;;;2.37;1.90;;;9.60;99.90;;;;;;5010684;28;20491;-49
2022/09/19 00:33:34;;;;;;;2.00;1.37;;;9.50;99.90;;;;;;5009712;28;20433;-48
2022/09/19 00:36:03;;;;;;;2.90;1.40;;;9.70;99.90;;;;;;5010922;28;20460;-47
2022/09/19 00:38:31;;;;;;;2.30;1.37;;;9.80;99.90;;;;;;5010957;28;20435;-48
2022/09/19 00:40:59;;;;;;;1.70;1.60;;;9.70;99.90;;;;;;5010300;28;20440;-47
2022/09/19 00:43:44;;;;;;;2.00;1.80;;;10.00;99.90;;;;;;5011180;28;20448;-47
2022/09/19 00:46:13;;;;;;;2.13;1.30;;;9.90;99.90;;;;;;5010821;28;20505;-47
2022/09/19 00:48:41;;;;;;;3.77;1.80;;;9.80;99.90;;;;;;5010662;28;20467;-45
2022/09/19 00:51:11;;;;;;;1.50;1.13;;;9.60;99.90;;;;;;5010830;28;20456;-47
2022/09/19 00:53:38;;;;;;;2.87;1.40;;;9.60;99.90;;;;;;5010889;28;20515;-49
2022/09/19 00:56:06;;;;;;;1.60;1.40;;;9.50;99.90;;;;;;5010566;28;20938;-48
2022/09/19 00:58:35;;;;;;;9.17;2.57;;;9.70;99.90;;;;;;5010906;28;20514;-48
2022/09/19 01:01:02;;;;;;;1.80;1.13;;;9.70;99.90;;;;;;5010527;28;20455;-48
2022/09/19 01:03:32;;;;;;;1.90;1.10;;;9.70;99.90;;;;;;5010921;28;20452;-47
2022/09/19 01:06:12;;;;;;;3.73;1.43;;;9.80;99.90;;;;;;5010712;28;20459;-48
2022/09/19 01:08:56;;;;;;;1.70;1.37;;;9.60;99.90;;;;;;5009866;28;20439;-48
2022/09/19 01:11:59;;;;;;;1.90;1.40;;;9.60;99.90;;;;;;5010679;28;20435;-48
2022/09/19 01:14:40;;;;;;;1.93;1.20;;;8.90;99.90;;;;;;5005826;28;20498;-48
2022/09/19 01:17:12;;;;;;;1.67;1.30;;;9.00;99.90;;;;;;5012360;28;20479;-48
2022/09/19 01:20:19;;;;;;;1.40;1.20;;;9.20;99.90;;;;;;5013628;28;20424;-46
2022/09/19 01:22:56;;;;;;;1.80;1.70;;;9.40;99.90;;;;;;5014256;28;20509;-48
2022/09/19 01:25:32;;;;;;;1.80;1.30;;;9.60;99.90;;;;;;5014278;28;20527;-48
2022/09/19 01:28:14;;;;;;;2.30;1.33;;;9.50;99.90;;;;;;5014268;28;20549;-47
2022/09/19 01:30:47;;;;;;;1.50;1.30;;;9.50;99.90;;;;;;5013360;28;20846;-48
2022/09/19 01:33:17;;;;;;;1.50;1.10;;;9.40;99.90;;;;;;5014159;28;20445;-49
2022/09/19 01:35:48;;;;;;;2.80;1.77;;;9.60;99.90;;;;;;5013114;28;20487;-48
2022/09/19 01:38:21;;;;;;;1.70;1.30;;;9.50;99.90;;;;;;5014479;28;20454;-50
2022/09/19 01:40:49;;;;;;;1.57;1.03;;;9.80;99.90;;;;;;5013366;28;20810;-47
2022/09/19 01:43:19;;;;;;;2.30;1.07;;;9.60;99.90;;;;;;5013901;28;20482;-48
2022/09/19 01:45:46;;;;;;;1.53;1.13;;;9.50;99.90;;;;;;5013889;28;20790;-46
2022/09/19 01:48:19;;;;;;;1.87;1.27;;;9.50;99.90;;;;;;5013536;28;20463;-50
2022/09/19 01:51:17;;;;;;;1.43;0.77;;;9.50;99.90;;;;;;5012908;28;20894;-47
2022/09/19 01:54:01;;;;;;;2.33;1.07;;;9.50;99.90;;;;;;5013707;28;20445;-47
2022/09/19 01:56:37;;;;;;;1.70;1.40;;;9.50;99.90;;;;;;5013747;28;20463;-47
2022/09/19 01:59:20;;;;;;;2.20;1.70;;;9.60;99.90;;;;;;5013103;28;20443;-48
2022/09/19 02:01:51;;;;;;;2.87;1.47;;;9.60;99.90;;;;;;5013843;28;20466;-48
2022/09/19 02:04:22;;;;;;;2.37;1.30;;;9.70;99.90;;;;;;5013487;28;20457;-48
2022/09/19 02:06:53;;;;;;;2.03;1.77;;;9.40;99.90;;;;;;5013464;28;20876;-48
2022/09/19 02:09:27;;;;;;;2.00;1.30;;;9.30;99.90;;;;;;5012496;28;20475;-48
2022/09/19 02:11:56;;;;;;;2.20;1.60;;;9.30;99.90;;;;;;5013630;28;20450;-47
2022/09/19 02:14:28;;;;;;;2.27;1.17;;;9.40;99.90;;;;;;5013292;28;20446;-48
2022/09/19 02:17:03;;;;;;;3.00;1.80;;;9.60;99.90;;;;;;5013224;28;20475;-46
2022/09/19 02:19:33;;;;;;;2.43;1.77;;;9.60;99.90;;;;;;5012472;28;20471;-48
2022/09/19 02:22:03;;;;;;;1.67;1.47;;;9.80;99.90;;;;;;5013193;28;20432;-47
2022/09/19 02:24:34;;;;;;;1.77;1.67;;;9.70;99.90;;;;;;5013192;28;20444;-47
2022/09/19 02:27:07;;;;;;;2.30;1.53;;;9.80;99.90;;;;;;5012998;28;20456;-46
2022/09/19 02:29:38;;;;;;;1.73;1.53;;;10.00;99.90;;;;;;5011773;28;20468;-48
2022/09/19 02:32:07;;;;;;;4.57;1.73;;;9.80;99.90;;;;;;5013089;28;20483;-48
2022/09/19 02:34:35;;;;;;;1.93;1.40;;;9.70;99.90;;;;;;5012024;28;20984;-47
2022/09/19 02:37:06;;;;;;;1.70;1.33;;;9.60;99.90;;;;;;5012870;28;20594;-48
2022/09/19 02:39:36;;;;;;;2.23;1.70;;;9.70;99.90;;;;;;5012388;28;20493;-48
2022/09/19 02:42:08;;;;;;;2.23;1.60;;;9.60;99.90;;;;;;5013053;28;20956;-47
2022/09/19 02:44:52;;;;;;;2.87;1.80;;;9.30;99.90;;;;;;5012882;28;20462;-46
2022/09/19 02:47:24;;;;;;;2.70;1.73;;;9.30;99.90;;;;;;5012652;28;20545;-47
2022/09/19 02:49:56;;;;;;;1.50;1.13;;;9.30;99.90;;;;;;5011996;28;20463;-48
2022/09/19 02:52:29;;;;;;;3.00;1.70;;;9.10;99.90;;;;;;5012547;28;20459;-48
2022/09/19 02:55:02;;;;;;;2.20;2.00;;;9.30;99.90;;;;;;5012861;28;21046;-48
2022/09/19 02:57:31;;;;;;;2.53;1.70;;;9.50;99.90;;;;;;5012898;28;20475;-48
2022/09/19 03:00:01;;;;;;;2.10;1.67;;;9.80;99.90;;;;;;5012150;28;20443;-48
2022/09/19 03:02:33;;;;;;;2.90;1.80;;;9.50;99.90;;;;;;5012579;28;20427;-47
2022/09/19 03:05:06;;;;;;;2.83;1.90;;;9.40;99.90;;;;;;5012725;28;20518;-46
2022/09/19 03:07:38;;;;;;;1.87;1.70;;;9.20;99.90;;;;;;5011997;28;20455;-44
2022/09/19 03:10:09;;;;;;;1.60;1.50;;;9.10;99.90;;;;;;5011821;28;20991;-48
2022/09/19 03:12:41;;;;;;;3.60;1.60;;;9.30;99.90;;;;;;5012420;28;20793;-47
2022/09/19 03:15:10;;;;;;;2.13;1.60;;;9.10;99.90;;;;;;5012176;28;20450;-46
2022/09/19 03:17:43;;;;;;;2.13;1.17;;;8.90;99.90;;;;;;5012152;28;20541;-47
2022/09/19 03:20:11;;;;;;;1.30;1.00;;;9.10;99.90;;;;;;5011371;28;20445;-46
2022/09/19 03:22:40;;;;;;;1.60;1.00;;;8.90;99.90;;;;;;5012255;28;20558;-47
2022/09/19 03:25:08;;;;;;;1.73;1.20;;;8.80;99.90;;;;;;5011879;28;20459;-47
2022/09/19 03:27:37;;;;;;;2.17;1.00;;;8.70;99.90;;;;;;5012355;28;20702;-47
2022/09/19 03:30:07;;;;;;;1.87;0.77;;;8.70;99.90;;;;;;5011012;28;20501;-48
2022/09/19 03:32:36;;;;;;;1.83;1.03;;;8.60;99.90;;;;;;5011944;28;20431;-47
2022/09/19 03:35:04;;;;;;;4.30;1.20;;;9.00;99.90;;;;;;5011415;28;20442;-47
2022/09/19 03:37:32;;;;;;;1.63;1.13;;;8.80;99.90;;;;;;5011725;28;20525;-46
2022/09/19 03:39:59;;;;;;;1.53;1.00;;;8.70;99.90;;;;;;5010576;28;20432;-47
2022/09/19 03:42:26;;;;;;;1.20;1.07;;;8.80;99.90;;;;;;5011476;28;20533;-47
2022/09/19 03:44:53;;;;;;;1.90;1.13;;;8.90;99.90;;;;;;5011658;28;20489;-46
2022/09/19 03:47:21;;;;;;;1.50;0.77;;;9.10;99.90;;;;;;5011408;28;20483;-49
2022/09/19 03:49:50;;;;;;;1.50;0.80;;;8.60;99.90;;;;;;5010671;28;20463;-47
2022/09/19 03:52:18;;;;;;;1.30;0.97;;;8.60;99.90;;;;;;5011481;28;20479;-47
2022/09/19 03:54:45;;;;;;;3.27;1.47;;;8.80;99.90;;;;;;5011567;28;20443;-47
2022/09/19 03:57:12;;;;;;;1.63;1.03;;;8.90;99.90;;;;;;5011541;28;20467;-47
2022/09/19 03:59:42;;;;;;;1.60;1.30;;;9.10;99.90;;;;;;5010849;28;20439;-48
2022/09/19 04:02:10;;;;;;;2.53;1.30;;;8.90;99.90;;;;;;5011396;28;20440;-48
2022/09/19 04:04:38;;;;;;;1.40;1.00;;;8.50;99.90;;;;;;5011398;28;20486;-47
2022/09/19 04:07:07;;;;;;;1.93;0.90;;;8.20;99.90;;;;;;5010763;28;20467;-47
2022/09/19 04:09:34;;;;;;;3.53;1.20;;;8.40;99.90;;;;;;5010574;28;20537;-48
2022/09/19 04:12:04;;;;;;;5.03;1.70;;;8.60;99.90;;;;;;5011438;28;21008;-47
2022/09/19 04:14:31;;;;;;;2.60;1.60;;;8.40;99.90;;;;;;5011253;28;20538;-48
2022/09/19 04:16:59;;;;;;;2.93;1.33;;;8.60;99.90;;;;;;5012267;28;20668;-46
2022/09/19 04:19:26;;;;;;;1.20;0.70;;;8.70;99.90;;;;;;5010703;28;20435;-46
2022/09/19 04:21:54;;;;;;;1.13;0.70;;;8.50;99.90;;;;;;5011072;28;20917;-48
2022/09/19 04:24:25;;;;;;;1.40;1.10;;;8.80;99.90;;;;;;5011080;28;20447;-48
2022/09/19 04:26:53;;;;;;;3.20;1.20;;;9.00;99.90;;;;;;5011209;28;20992;-48
2022/09/19 04:29:20;;;;;;;2.27;1.00;;;8.80;99.90;;;;;;5010447;28;20456;-47
2022/09/19 04:31:47;;;;;;;2.17;1.47;;;8.80;99.90;;;;;;5011007;28;21038;-48
2022/09/19 04:34:14;;;;;;;1.67;1.00;;;8.70;99.90;;;;;;5009966;28;20455;-48
2022/09/19 04:36:41;;;;;;;1.73;1.20;;;8.60;99.90;;;;;;5010975;28;20452;-47
2022/09/19 04:39:08;;;;;;;1.57;1.00;;;8.80;99.90;;;;;;5010655;28;20872;-47
2022/09/19 04:41:38;;;;;;;1.60;0.90;;;8.60;99.90;;;;;;5011087;28;20509;-47
2022/09/19 04:44:08;;;;;;;1.50;1.00;;;8.70;99.90;;;;;;5010930;28;20467;-48
2022/09/19 04:46:35;;;;;;;2.63;1.20;;;8.80;99.90;;;;;;5010927;28;20459;-47
2022/09/19 04:49:04;;;;;;;1.60;1.13;;;8.70;99.90;;;;;;5010202;28;20852;-46
2022/09/19 04:51:31;;;;;;;2.43;1.30;;;8.70;99.90;;;;;;5011428;28;20562;-46
2022/09/19 04:54:01;;;;;;;2.10;1.20;;;9.00;99.90;;;;;;5014915;28;21015;-48
2022/09/19 04:56:28;;;;;;;2.50;1.20;;;9.00;99.90;;;;;;5014646;28;20452;-47
2022/09/19 04:58:58;;;;;;;1.80;1.43;;;8.80;99.90;;;;;;5014167;28;20529;-48
2022/09/19 05:01:26;;;;;;;1.70;1.20;;;9.00;99.90;;;;;;5015294;28;20435;-48
2022/09/19 05:03:53;;;;;;;1.60;1.07;;;9.10;99.90;;;;;;5014894;28;20505;-47
2022/09/19 05:06:21;;;;;;;1.50;1.20;;;9.00;99.90;;;;;;5014727;28;20510;-46
2022/09/19 05:08:50;;;;;;;1.40;1.13;;;8.90;99.90;;;;;;5013002;28;20448;-48
2022/09/19 05:11:20;;;;;;;1.43;1.07;;;8.70;99.90;;;;;;5014872;28;20946;-48
2022/09/19 05:13:48;;;;;;;1.73;1.03;;;8.50;99.90;;;;;;5014123;28;20493;-49
2022/09/19 05:16:18;;;;;;;1.47;1.13;;;8.70;99.90;;;;;;5014216;28;20944;-49
2022/09/19 05:18:46;;;;;;;2.40;1.23;;;8.70;99.90;;;;;;5014109;28;20428;-49
2022/09/19 05:21:15;;;;;;;1.40;1.10;;;8.50;99.90;;;;;;5014611;28;20776;-47
2022/09/19 05:23:42;;;;;;;5.00;1.20;;;8.50;99.90;;;;;;5014130;28;20439;-48
2022/09/19 05:26:11;;;;;;;1.63;1.27;;;8.70;99.90;;;;;;5014451;28;20478;-48
2022/09/19 05:28:38;;;;;;;1.40;1.03;;;8.80;99.90;;;;;;5014179;28;20454;-47
2022/09/19 05:31:07;;;;;;;2.03;1.37;;;9.00;99.90;;;;;;5013845;28;21019;-48
2022/09/19 05:33:36;;;;;;;2.63;1.50;;;9.00;99.90;;;;;;5013241;28;20542;-46
2022/09/19 05:36:04;;;;;;;2.20;1.53;;;9.00;99.90;;;;;;5014149;28;20459;-48
2022/09/19 05:38:33;;;;;;;1.77;1.00;;;9.00;99.90;;;;;;5014062;28;20444;-49
2022/09/19 05:41:01;;;;;;;3.87;1.37;;;9.10;99.90;;;;;;5013346;28;20444;-48
2022/09/19 05:43:29;;;;;;;1.67;1.20;;;9.00;99.90;;;;;;5014396;28;20501;-48
2022/09/19 05:45:57;;;;;;;2.00;1.47;;;8.90;99.90;;;;;;5014201;28;20988;-49
2022/09/19 05:48:25;;;;;;;1.20;1.00;;;8.70;99.90;;;;;;5014389;28;20478;-50
2022/09/19 05:50:54;;;;;;;1.80;1.23;;;8.60;99.90;;;;;;5013128;28;20537;-48
2022/09/19 05:56:08;;;;;;;2.60;1.50;;;8.30;99.90;;;;;;5013707;28;20446;-48
2022/09/19 05:58:36;;;;;;;1.90;1.40;;;8.10;99.90;;;;;;5013766;28;20828;-47
2022/09/19 06:01:05;;;;;;;1.50;1.37;;;8.20;99.90;;;;;;5013393;28;20855;-48
2022/09/19 06:03:34;;;;;;;1.83;1.47;;;8.20;99.90;;;;;;5012727;28;20546;-46
2022/09/19 06:06:08;;;;;;;2.30;1.40;;;8.10;99.90;;;;;;5013629;28;20466;-48
2022/09/19 06:08:35;;;;;;;1.40;1.00;;;8.10;99.90;;;;;;5013226;28;20545;-47
2022/09/19 06:11:02;;;;;;;3.27;1.73;;;8.10;99.90;;;;;;5012906;28;20484;-48
2022/09/19 06:14:13;;;;;;;2.10;1.90;;;8.30;99.90;;;;;;5013434;28;20439;-48
2022/09/19 06:16:17;;;;;;;2.60;1.80;;;8.40;99.90;;;;;;5013288;28;20467;-48
2022/09/19 06:18:44;;;;;;;3.20;1.60;;;8.60;99.90;;;;;;5013166;28;20790;-46
2022/09/19 06:21:13;;;;;;;2.53;1.70;;;8.50;99.90;;;;;;5013020;28;20440;-48
2022/09/19 06:23:40;;;;;;;2.77;1.83;;;7.90;99.90;;;;;;5013195;28;20487;-46
2022/09/19 06:26:07;;;;;;;2.80;1.70;;;7.80;99.90;;;;;;5013036;28;20526;-47
2022/09/19 06:28:34;;;;;;;2.23;2.03;;;7.80;99.90;;;;;;5013257;28;20451;-47
2022/09/19 06:31:03;;;;;;;3.07;1.90;;;7.70;99.90;;;;;;5013023;28;20475;-48
2022/09/19 06:33:30;;;;;;;1.80;1.60;;;7.70;99.90;;;;;;5012389;28;20514;-48
2022/09/19 06:35:58;;;;;;;2.00;1.83;;;8.00;99.90;;;;;;5013206;28;20582;-48
2022/09/19 06:38:27;;;;;;;1.77;1.40;;;8.00;99.90;;;;;;5013202;28;20447;-49
2022/09/19 06:40:54;;;;;;;1.57;1.47;;;7.80;99.90;;;;;;5012354;28;20937;-47
2022/09/19 06:43:22;;;;;;;3.73;1.70;;;8.00;99.90;;;;;;5012976;28;20452;-48
2022/09/19 06:45:49;;;;;;;1.70;1.33;;;8.20;99.90;;;;;;5012764;28;20448;-46
2022/09/19 06:48:16;;;;;;;2.30;1.27;;;7.90;99.90;;;;;;5012781;28;20452;-46
2022/09/19 06:50:47;;;;;;;1.40;1.27;;;7.70;99.90;;;;;;5012095;28;20483;-48
2022/09/19 06:53:14;;;;;;;2.67;2.20;;;7.60;99.90;;;;;;5012761;28;20522;-48
2022/09/19 06:55:43;;;;;;;2.70;2.20;;;7.60;99.90;;;;;;5012547;28;20455;-48
2022/09/19 06:58:12;;;;;;;2.50;2.30;;;7.50;99.90;;;;;;5012526;28;20801;-47
2022/09/19 07:00:40;;;;;;;2.37;1.50;;;7.70;99.90;;;;;;5011906;28;20445;-47
2022/09/19 07:03:09;;;;;;;2.37;1.90;;;7.90;99.90;;;;;;5012829;28;20845;-49
2022/09/19 07:05:39;;;;;;;1.90;1.50;;;8.10;99.90;;;;;;5012287;28;20720;-48
2022/09/19 07:08:06;;;;;;;2.70;1.60;;;8.30;99.90;;;;;;5011571;28;20434;-47
2022/09/19 07:10:36;;;;;;;4.53;1.40;;;8.30;99.90;;;;;;5011737;28;20509;-48
2022/09/19 07:13:06;;;;;;;1.60;1.37;;;8.30;99.90;;;;;;5012453;28;20436;-49
2022/09/19 07:15:35;;;;;;;2.57;2.37;;;8.40;99.90;;;;;;5012042;28;20916;-45
2022/09/19 07:18:02;;;;;;;2.23;2.03;;;8.40;99.90;;;;;;5012534;28;20959;-46
2022/09/19 07:20:30;;;;;;;2.37;2.17;;;8.60;99.90;;;;;;5011447;28;20427;-46
2022/09/19 07:23:01;;;;;;;4.30;3.80;;;8.90;99.90;;;;;;5012230;28;20448;-46
2022/09/19 07:25:29;;;;;;;1.80;1.30;;;9.00;99.90;;;;;;5011987;28;20807;-46
2022/09/19 07:27:57;;;;;;;3.37;2.50;;;9.30;99.90;;;;;;5012024;28;20455;-46
2022/09/19 07:30:26;;;;;;;4.23;2.33;;;9.40;99.90;;;;;;5011271;28;20448;-48
2022/09/19 07:32:57;;;;;;;2.17;1.13;;;9.40;99.90;;;;;;5011726;28;20439;-45
2022/09/19 07:35:24;;;;;;;1.77;1.17;;;9.50;99.90;;;;;;5010966;28;20463;-48
2022/09/19 07:37:51;;;;;;;1.67;1.00;;;9.60;99.90;;;;;;5011802;28;20455;-49
2022/09/19 07:40:18;;;;;;;1.20;0.90;;;9.60;99.90;;;;;;5011157;28;20498;-48
2022/09/19 07:42:45;;;;;;;1.40;1.10;;;9.30;99.90;;;;;;5011968;28;20452;-48
2022/09/19 07:45:12;;;;;;;2.87;1.30;;;9.20;99.90;;;;;;5011872;28;20483;-46
2022/09/19 07:47:45;;;;;;;4.57;1.10;;;9.30;99.90;;;;;;5011742;28;20467;-46
2022/09/19 07:50:14;;;;;;;3.57;1.00;;;9.10;99.90;;;;;;5010909;28;20456;-47
2022/09/19 07:52:41;;;;;;;1.53;1.03;;;9.10;99.90;;;;;;5011645;28;20479;-46
2022/09/19 07:55:11;;;;;;;1.63;1.20;;;9.40;99.90;;;;;;5011310;28;20447;-46
2022/09/19 07:57:38;;;;;;;1.30;0.90;;;9.40;99.90;;;;;;5011603;28;20479;-47
2022/09/19 08:00:06;;;;;;;1.70;1.20;;;9.40;99.90;;;;;;5010946;28;20501;-47
2022/09/19 08:02:33;;;;;;;1.47;1.10;;;9.40;99.90;;;;;;5011676;28;20456;-48
2022/09/19 08:05:02;;;;;;;1.13;0.70;;;9.50;99.90;;;;;;5011408;28;20451;-49
2022/09/19 08:07:29;;;;;;;1.30;0.77;;;9.30;99.90;;;;;;5010159;28;20977;-47
2022/09/19 08:09:56;;;;;;;1.40;0.90;;;9.30;99.90;;;;;;5010882;28;20811;-47
2022/09/19 08:12:22;;;;;;;2.03;1.10;;;9.20;99.90;;;;;;5011069;28;20911;-46
2022/09/19 08:14:49;;;;;;;2.50;1.67;;;9.00;99.90;;;;;;5011332;28;20452;-47
2022/09/19 08:17:16;;;;;;;1.37;1.00;;;8.90;99.90;;;;;;5011263;28;20502;-46
2022/09/19 08:19:44;;;;;;;5.27;1.37;;;9.00;99.90;;;;;;5010790;28;20455;-47
2022/09/19 08:22:13;;;;;;;2.07;1.00;;;9.10;99.90;;;;;;5011633;28;20454;-47
2022/09/19 08:24:40;;;;;;;1.10;0.80;;;9.40;99.90;;;;;;5011272;28;20446;-48
2022/09/19 08:27:07;;;;;;;1.33;0.77;;;9.40;99.90;;;;;;5011351;28;20522;-47
2022/09/19 08:29:33;;;;;;;1.80;1.20;;;9.40;99.90;;;;;;5010599;28;20466;-48
2022/09/19 08:32:02;;;;;;;1.30;0.73;;;9.70;99.90;;;;;;5011044;28;20553;-47
2022/09/19 08:34:29;;;;;;;1.90;1.10;;;9.60;99.90;;;;;;5010236;28;20941;-46
2022/09/19 08:37:00;;;;;;;1.77;0.80;;;9.50;99.90;;;;;;5011746;28;20482;-48
2022/09/19 08:39:28;;;;;;;1.20;0.80;;;9.50;99.90;;;;;;5010600;28;20527;-48
2022/09/19 08:42:18;;;;;;;1.03;0.57;;;9.60;99.90;;;;;;5011082;28;20518;-47
2022/09/19 08:44:57;;;;;;;5.17;1.20;;;10.00;99.90;;;;;;5010807;28;20968;-48
2022/09/19 08:47:24;;;;;;;1.47;0.87;;;10.40;99.90;;;;;;5011347;28;20467;-48
2022/09/19 08:49:55;;;;;;;1.83;0.67;;;10.70;99.90;;;;;;5010604;28;20497;-47
2022/09/19 08:52:32;;;;;;;6.80;0.87;;;10.60;99.90;;;;;;5011061;28;20479;-47
2022/09/19 08:55:03;;;;;;;1.20;0.57;;;10.60;99.90;;;;;;5011167;28;20435;-48
2022/09/19 08:57:34;;;;;;;2.13;0.77;;;10.70;99.90;;;;;;5010832;28;20835;-49
2022/09/19 09:00:05;;;;;;;0.90;0.60;;;10.70;99.90;;;;;;5010298;28;20518;-46
2022/09/19 09:02:42;;;;;;;1.20;0.70;;;10.50;99.90;;;;;;5010879;28;20475;-50
2022/09/19 09:05:14;;;;;;;1.10;0.50;;;10.60;99.90;;;;;;5010782;28;20439;-45
2022/09/19 09:07:51;;;;;;;1.10;0.60;;;10.50;99.90;;;;;;5010666;28;20964;-45
2022/09/19 09:10:34;;;;;;;1.40;0.80;;;10.70;99.90;;;;;;5010319;28;20491;-48
2022/09/19 09:13:10;;;;;;;18.77;2.80;;;10.80;99.90;;;;;;5010653;28;20510;-47
2022/09/19 09:15:58;;;;;;;5.83;1.10;;;10.90;99.90;;;;;;5010936;28;20475;-45
2022/09/19 09:18:58;;;;;;;1.13;0.83;;;11.00;99.90;;;;;;5010683;28;20898;-43
2022/09/19 09:21:33;;;;;;;1.40;0.93;;;11.00;99.90;;;;;;5011049;28;20440;-46
2022/09/19 09:24:06;;;;;;;1.10;0.70;;;11.10;99.90;;;;;;5010996;28;20482;-46
2022/09/19 09:26:40;;;;;;;1.20;0.60;;;11.00;99.90;;;;;;5011145;28;20515;-46
2022/09/19 09:29:15;;;;;;;1.00;0.50;;;11.10;99.90;;;;;;5010164;28;20821;-46
2022/09/19 09:31:47;;;;;;;1.27;1.00;;;11.10;99.90;;;;;;5010689;28;20472;-47
2022/09/19 09:34:19;;;;;;;1.20;0.60;;;11.00;99.90;;;;;;5009014;28;20434;-48
2022/09/19 09:36:51;;;;;;;2.20;0.80;;;11.20;99.90;;;;;;5010855;28;20487;-48
2022/09/19 09:39:25;;;;;;;2.77;0.87;;;11.20;99.90;;;;;;5011506;28;20516;-48
2022/09/19 09:41:57;;;;;;;0.90;0.40;;;11.30;99.90;;;;;;5014121;28;20448;-45
2022/09/19 09:44:54;;;;;;;1.23;0.80;;;11.00;99.90;;;;;;5014027;28;20550;-47
2022/09/19 09:47:43;;;;;;;1.20;0.73;;;10.60;99.90;;;;;;5014270;28;20500;-47
2022/09/19 09:50:28;;;;;;;14.17;9.30;;;10.60;99.90;;;;;;5013592;28;20485;-46
2022/09/19 09:53:04;;;;;;;1.70;1.20;;;11.10;99.90;;;;;;5013621;28;20862;-47
2022/09/19 09:58:32;;;;;;;1.07;0.73;;;11.60;99.90;;;;;;5014040;28;20512;-47
2022/09/19 10:04:08;;;;;;;1.57;0.90;;;11.60;99.90;;;;;;5013928;28;20423;-50
2022/09/19 10:06:40;;;;;;;1.43;0.70;;;11.40;99.90;;;;;;5013809;28;20472;-47
2022/09/19 10:09:12;;;;;;;1.40;0.90;;;11.30;99.90;;;;;;5012465;28;20813;-47
2022/09/19 10:11:45;;;;;;;1.50;1.10;;;11.10;99.90;;;;;;5013678;28;20520;-47
2022/09/19 10:14:19;;;;;;;1.63;0.90;;;11.20;99.90;;;;;;5013295;28;20922;-45
2022/09/19 10:16:52;;;;;;;1.10;0.90;;;11.30;99.90;;;;;;5014640;28;20495;-46
2022/09/19 10:19:27;;;;;;;1.53;1.10;;;11.40;99.90;;;;;;5012773;28;20559;-46
2022/09/19 10:21:55;;;;;;;2.07;0.80;;;11.60;99.90;;;;;;5013240;28;20470;-46
2022/09/19 10:24:42;;;;;;;1.93;0.90;;;11.90;99.90;;;;;;5013544;28;20458;-47
2022/09/19 10:27:12;;;;;;;1.50;0.63;;;12.10;99.90;;;;;;5013075;28;20485;-47
2022/09/19 10:29:51;;;;;;;2.30;0.90;;;12.20;99.90;;;;;;5012569;28;20486;-48
2022/09/19 10:32:21;;;;;;;1.63;1.00;;;11.80;99.90;;;;;;5024882;28;20507;-46
2022/09/19 10:34:49;;;;;;;1.30;0.70;;;11.90;99.90;;;;;;5029816;28;20801;-50
2022/09/19 10:37:18;;;;;;;1.90;0.80;;;12.10;99.90;;;;;;5030277;28;20566;-47
2022/09/19 10:39:48;;;;;;;3.00;1.17;;;12.30;99.90;;;;;;5031226;28;20447;-47
2022/09/19 10:42:38;;;;;;;1.30;0.80;;;12.60;99.90;;;;;;5028976;28;20443;-47
2022/09/19 10:45:17;;;;;;;1.10;0.77;;;12.60;99.90;;;;;;5030397;28;20451;-46
2022/09/19 10:47:44;;;;;;;1.50;0.90;;;12.00;99.90;;;;;;5029801;28;20511;-47
2022/09/19 10:50:16;;;;;;;2.03;0.80;;;11.80;99.90;;;;;;5030335;28;20439;-49
2022/09/19 10:52:45;;;;;;;1.20;0.80;;;11.70;99.90;;;;;;5032190;28;20527;-48
2022/09/19 10:55:15;;;;;;;1.50;0.70;;;11.70;99.90;;;;;;5031383;28;20444;-47
2022/09/19 10:57:45;;;;;;;1.47;0.80;;;11.90;99.90;;;;;;5031986;28;21042;-47
2022/09/19 11:00:25;;;;;;;2.80;0.70;;;11.80;99.90;;;;;;5030899;28;20538;-46
2022/09/19 11:03:05;;;;;;;1.30;0.73;;;12.00;99.90;;;;;;5031786;28;20441;-46
2022/09/19 11:05:33;;;;;;;1.20;0.80;;;12.30;99.90;;;;;;5031738;28;20432;-47
2022/09/19 11:08:02;;;;;;;1.40;1.00;;;12.20;99.90;;;;;;5032537;28;20461;-46
2022/09/19 11:10:38;;;;;;;2.03;0.93;;;12.10;99.90;;;;;;5031060;28;20479;-49
2022/09/19 11:13:07;;;;;;;2.33;0.60;;;12.00;99.90;;;;;;5031573;28;20469;-47
2022/09/19 11:16:03;;;;;;;1.80;1.00;;;12.30;99.90;;;;;;5032174;28;20474;-46
2022/09/19 11:18:46;;;;;;;1.50;0.80;;;12.50;99.90;;;;;;5032282;28;20804;-48
2022/09/19 11:21:25;;;;;;;1.50;1.00;;;12.20;99.90;;;;;;5031506;28;20952;-47
2022/09/19 11:24:05;;;;;;;1.20;0.90;;;12.20;99.90;;;;;;5031913;28;20440;-47
2022/09/19 11:26:44;;;;;;;1.47;0.80;;;12.40;99.90;;;;;;5031693;28;20464;-47
2022/09/19 11:29:33;;;;;;;1.07;0.53;;;12.70;99.90;;;;;;5031269;28;20433;-48
2022/09/19 11:32:12;;;;;;;1.20;0.70;;;13.00;99.90;;;;;;5031834;28;20470;-48
2022/09/19 11:34:49;;;;;;;2.63;1.00;;;13.10;99.90;;;;;;5030222;28;20445;-46
2022/09/19 11:37:41;;;;;;;1.00;0.57;;;13.20;99.90;;;;;;5031623;28;20881;-47
2022/09/19 11:40:29;;;;;;;1.00;0.60;;;13.10;99.90;;;;;;5030964;28;20964;-47
2022/09/19 11:43:12;;;;;;;6.00;1.27;;;13.20;99.90;;;;;;5031975;28;20452;-48
2022/09/19 11:45:55;;;;;;;1.50;0.60;;;13.20;99.90;;;;;;5031870;28;20452;-46
2022/09/19 11:48:45;;;;;;;1.10;0.70;;;12.90;99.90;;;;;;5031880;28;20559;-47
2022/09/19 11:51:21;;;;;;;798.83;91.70;;;13.00;99.90;;;;;;5031676;28;20481;-48
2022/09/19 11:54:02;;;;;;;4.27;0.80;;;13.40;99.90;;;;;;5031483;28;20487;-48
2022/09/19 11:56:59;;;;;;;2.67;0.57;;;13.70;99.90;;;;;;5031416;28;20488;-47
2022/09/19 11:59:52;;;;;;;1.20;0.60;;;13.50;99.90;;;;;;5031079;28;20505;-47
2022/09/19 12:02:49;;;;;;;1.10;0.60;;;13.60;99.90;;;;;;5030299;28;20452;-46
2022/09/19 12:05:28;;;;;;;1.40;0.50;;;13.60;99.90;;;;;;5029137;28;20449;-47
2022/09/19 12:08:13;;;;;;;13.13;1.53;;;13.70;99.90;;;;;;5031199;28;20955;-48
2022/09/19 12:10:45;;;;;;;2.77;0.80;;;13.50;99.90;;;;;;5030374;28;20920;-49
2022/09/19 12:13:17;;;;;;;1.00;0.50;;;13.80;99.90;;;;;;5031428;28;20479;-46
2022/09/19 12:15:49;;;;;;;1.93;0.60;;;13.80;99.90;;;;;;5031187;28;20435;-48
2022/09/19 12:18:22;;;;;;;5.40;0.80;;;13.80;99.90;;;;;;5031057;28;20447;-47
2022/09/19 12:20:54;;;;;;;1.73;0.60;;;13.80;99.90;;;;;;5030705;28;20447;-47
2022/09/19 12:26:14;;;;;;;1.70;0.80;;;13.70;99.90;;;;;;5030961;28;20457;-47
2022/09/19 12:28:46;;;;;;;6.10;0.97;;;14.10;99.90;;;;;;5030671;28;20452;-47
2022/09/19 12:31:20;;;;;;;1.50;0.80;;;14.10;99.90;;;;;;5031047;28;20445;-50
2022/09/19 12:33:51;;;;;;;1.63;0.60;;;14.00;99.90;;;;;;5029159;28;21084;-47
2022/09/19 12:36:26;;;;;;;1.00;0.60;;;14.00;99.90;;;;;;5031074;28;20455;-47
2022/09/19 12:38:59;;;;;;;1.60;0.80;;;14.00;99.90;;;;;;5030564;28;20485;-48
2022/09/19 12:41:36;;;;;;;1.40;0.83;;;13.90;99.90;;;;;;5031117;28;20436;-47
2022/09/19 12:44:12;;;;;;;2.10;0.60;;;13.80;99.90;;;;;;5030920;28;20473;-48
2022/09/19 12:46:49;;;;;;;1.73;1.27;;;13.90;99.90;;;;;;5030887;28;20450;-48
2022/09/19 12:49:28;;;;;;;2.83;1.00;;;13.80;99.90;;;;;;5030332;28;20445;-48
2022/09/19 12:52:01;;;;;;;1.07;0.50;;;13.80;99.90;;;;;;5030977;28;20434;-47
2022/09/19 12:54:36;;;;;;;1.27;0.73;;;13.90;99.90;;;;;;5030448;28;20832;-48
2022/09/19 12:57:09;;;;;;;1.63;0.60;;;13.90;99.90;;;;;;5030684;28;20998;-48
2022/09/19 12:59:36;;;;;;;1.30;0.93;;;13.80;99.90;;;;;;5030116;28;20434;-48
2022/09/19 13:02:14;;;;;;;2.90;1.20;;;13.80;99.90;;;;;;5030413;28;20545;-47
2022/09/19 13:04:47;;;;;;;1.23;0.67;;;13.90;99.90;;;;;;5030627;28;20457;-47
2022/09/19 13:07:19;;;;;;;1.23;0.63;;;13.90;99.90;;;;;;5031015;28;20951;-48
2022/09/19 13:09:56;;;;;;;1.20;0.70;;;13.90;99.90;;;;;;5030135;28;20437;-48
2022/09/19 13:12:33;;;;;;;1.03;0.60;;;13.90;99.90;;;;;;5031039;28;20489;-51
2022/09/19 13:15:05;;;;;;;1.83;0.70;;;13.90;99.90;;;;;;5034427;28;20438;-47
2022/09/19 13:25:50;;;;;;;2.20;1.07;;;14.00;99.90;;;;;;5023374;28;20450;-47
2022/09/19 13:28:34;;;;;;;1.50;0.63;;;14.10;99.90;;;;;;5034407;28;20870;-49
2022/09/19 13:31:13;;;;;;;1.13;0.67;;;14.00;99.90;;;;;;5033493;28;20449;-50
2022/09/19 13:33:45;;;;;;;1.10;0.60;;;14.20;99.90;;;;;;5032274;28;20585;-49
2022/09/19 13:36:14;;;;;;;1.20;0.60;;;14.20;99.90;;;;;;5034146;28;20883;-49
2022/09/19 13:38:45;;;;;;;1.63;0.70;;;14.30;99.90;;;;;;5033827;28;20517;-48
2022/09/19 13:41:22;;;;;;;1.30;0.50;;;14.30;99.90;;;;;;5033792;28;20465;-48